Time;durP1;ratioP1;P1;durP2;ratioP2;P2;SDS_P1;SDS_P2;PMS_P1;PMS_P2;Temp;Humidity;BMP_temperature;BMP_pressure;BME280_temperature;BME280_humidity;BME280_pressure;Samples;Min_cycle;Max_cycle;Signal;HPM_P1;HPM_P2
2021/10/13 00:00:20;;;;;;;8.75;4.68;;;;;;;5.95;100.00;96224.63;1035922;28;20018;-50
2021/10/13 00:00:51;;;;;;;8.82;4.70;;;;;;;5.96;100.00;96231.47;1035746;28;20022;-53
2021/10/13 00:01:22;;;;;;;5.90;4.10;;;;;;;5.96;100.00;96226.28;1031306;28;20304;-51
2021/10/13 00:01:53;;;;;;;7.43;4.13;;;;;;;5.94;100.00;96230.69;1019467;29;20263;-50
2021/10/13 00:02:23;;;;;;;6.15;4.38;;;;;;;5.96;100.00;96236.69;1023628;28;20111;-52
2021/10/13 00:02:54;;;;;;;8.32;4.43;;;;;;;6.00;100.00;96230.41;1031306;28;20021;-52
2021/10/13 00:03:25;;;;;;;6.65;4.85;;;;;;;6.03;100.00;96234.66;1035706;28;20097;-50
2021/10/13 00:03:56;;;;;;;6.88;4.68;;;;;;;5.94;100.00;96233.28;1027497;28;20018;-52
2021/10/13 00:04:26;;;;;;;6.60;4.60;;;;;;;5.98;100.00;96234.00;1027526;28;20011;-51
2021/10/13 00:04:57;;;;;;;7.65;4.82;;;;;;;5.97;100.00;96230.59;1027541;28;20508;-50
2021/10/13 00:05:28;;;;;;;6.38;4.57;;;;;;;6.02;100.00;96230.34;1027542;28;20445;-52
2021/10/13 00:05:58;;;;;;;8.05;4.70;;;;;;;6.04;100.00;96228.50;1027357;28;20022;-51
2021/10/13 00:06:29;;;;;;;7.40;4.88;;;;;;;6.03;100.00;96232.88;1023537;28;20016;-50
2021/10/13 00:07:00;;;;;;;7.68;4.90;;;;;;;6.06;100.00;96236.25;1027591;28;20026;-51
2021/10/13 00:07:31;;;;;;;10.02;5.60;;;;;;;6.08;100.00;96234.41;1031655;28;20025;-51
2021/10/13 00:08:01;;;;;;;6.50;5.05;;;;;;;6.05;100.00;96239.78;1031442;28;20830;-52
2021/10/13 00:08:32;;;;;;;8.27;5.10;;;;;;;6.01;100.00;96237.31;1027599;28;20023;-51
2021/10/13 00:09:03;;;;;;;8.73;5.15;;;;;;;6.00;100.00;96239.97;1027695;28;20022;-51
2021/10/13 00:09:34;;;;;;;7.55;5.63;;;;;;;6.03;100.00;96235.47;1031658;28;20500;-52
2021/10/13 00:10:05;;;;;;;8.30;5.47;;;;;;;6.03;100.00;96235.47;1031428;28;20523;-51
2021/10/13 00:10:36;;;;;;;7.57;5.53;;;;;;;6.05;100.00;96239.78;1027626;28;20023;-53
2021/10/13 00:11:06;;;;;;;9.05;5.65;;;;;;;6.07;100.00;96237.94;1027516;28;20357;-51
2021/10/13 00:11:38;;;;;;;7.80;5.13;;;;;;;6.09;100.00;96238.72;1027628;28;20017;-51
2021/10/13 00:12:09;;;;;;;9.55;5.60;;;;;;;6.06;100.00;96241.44;1027857;28;20011;-51
2021/10/13 00:12:40;;;;;;;9.65;5.65;;;;;;;6.03;100.00;96243.28;1031085;28;20277;-52
2021/10/13 00:13:11;;;;;;;8.52;6.40;;;;;;;6.02;100.00;96240.75;1019839;29;20165;-51
2021/10/13 00:13:42;;;;;;;8.55;5.60;;;;;;;6.01;100.00;96237.31;1019621;29;20023;-53
2021/10/13 00:14:13;;;;;;;9.80;5.85;;;;;;;6.00;100.00;96248.63;1027504;28;20337;-51
2021/10/13 00:14:44;;;;;;;9.65;6.53;;;;;;;6.06;100.00;96242.28;1031619;28;20384;-51
2021/10/13 00:15:14;;;;;;;9.40;5.22;;;;;;;6.12;100.00;96246.34;1023530;28;20023;-51
2021/10/13 00:15:45;;;;;;;7.90;5.80;;;;;;;6.12;100.00;96246.34;1023803;29;20330;-50
2021/10/13 00:16:16;;;;;;;7.28;4.85;;;;;;;6.11;100.00;96245.50;1023453;29;20019;-52
2021/10/13 00:17:03;;;;;;;8.65;5.70;;;;;;;6.05;100.00;96250.19;1024049;28;20542;-50
2021/10/13 00:17:34;;;;;;;8.00;5.57;;;;;;;6.03;100.00;96245.88;1027775;28;20362;-51
2021/10/13 00:18:05;;;;;;;12.00;5.88;;;;;;;6.00;100.00;96247.78;1023565;29;20294;-51
2021/10/13 00:18:36;;;;;;;8.88;5.97;;;;;;;6.00;100.00;96253.81;1023371;29;20049;-54
2021/10/13 00:19:07;;;;;;;9.35;6.22;;;;;;;6.01;100.00;96247.72;1027637;28;20023;-51
2021/10/13 00:19:38;;;;;;;8.63;6.13;;;;;;;6.08;100.00;96250.88;1031795;28;20016;-51
2021/10/13 00:20:09;;;;;;;7.45;5.57;;;;;;;6.05;100.00;96255.38;1031607;28;20061;-51
2021/10/13 00:20:39;;;;;;;7.80;6.25;;;;;;;6.02;100.00;96253.75;1023259;28;20074;-51
2021/10/13 00:21:10;;;;;;;8.43;6.28;;;;;;;6.07;100.00;96256.16;1019699;29;20019;-55
2021/10/13 00:21:41;;;;;;;8.02;5.90;;;;;;;6.09;100.00;96254.31;1031576;28;20053;-51
2021/10/13 00:22:11;;;;;;;8.30;6.40;;;;;;;6.11;100.00;96253.31;1027592;28;20102;-51
2021/10/13 00:22:42;;;;;;;7.78;5.50;;;;;;;6.12;100.00;96255.03;1023563;28;20505;-52
2021/10/13 00:23:13;;;;;;;7.50;5.90;;;;;;;6.12;100.00;96256.75;1023381;29;20022;-52
2021/10/13 00:23:44;;;;;;;7.32;5.72;;;;;;;6.12;100.00;96255.03;1031892;28;20018;-51
2021/10/13 00:24:15;;;;;;;8.20;6.13;;;;;;;6.11;100.00;96255.91;1027597;28;20484;-51
2021/10/13 00:24:45;;;;;;;7.80;5.80;;;;;;;6.13;100.00;96256.69;1031355;28;20508;-51
2021/10/13 00:25:16;;;;;;;7.65;5.85;;;;;;;6.11;100.00;96260.28;1031448;28;20105;-51
2021/10/13 00:25:46;;;;;;;7.78;6.47;;;;;;;6.09;100.00;96257.75;1031692;28;20017;-52
2021/10/13 00:26:17;;;;;;;7.82;6.18;;;;;;;6.08;100.00;96261.28;1031498;28;20073;-50
2021/10/13 00:26:48;;;;;;;9.15;6.22;;;;;;;6.06;100.00;96254.47;1019510;28;20024;-54
2021/10/13 00:27:19;;;;;;;8.23;6.35;;;;;;;6.07;100.00;96256.16;1023567;28;20102;-51
2021/10/13 00:27:50;;;;;;;9.60;6.25;;;;;;;6.07;100.00;96258.75;1031613;28;20121;-50
2021/10/13 00:28:21;;;;;;;8.75;5.90;;;;;;;6.05;100.00;96261.44;1035672;28;20120;-51
2021/10/13 00:28:51;;;;;;;8.68;6.63;;;;;;;6.09;100.00;96255.16;1035594;28;20802;-50
2021/10/13 00:29:22;;;;;;;10.00;6.63;;;;;;;6.09;100.00;96259.53;1031676;28;20155;-51
2021/10/13 00:29:53;;;;;;;7.50;6.05;;;;;;;6.09;100.00;96260.34;1015771;29;20030;-50
2021/10/13 00:30:24;;;;;;;9.52;6.30;;;;;;;6.13;100.00;96261.06;1023609;29;20158;-52
2021/10/13 00:30:54;;;;;;;8.35;6.18;;;;;;;6.11;100.00;96265.50;1023442;29;20023;-50
2021/10/13 00:31:25;;;;;;;9.05;6.38;;;;;;;6.10;100.00;96261.19;1015721;29;20099;-51
2021/10/13 00:31:56;;;;;;;8.15;6.45;;;;;;;6.12;100.00;96260.22;1015647;29;20494;-50
2021/10/13 00:32:28;;;;;;;8.50;6.18;;;;;;;6.11;100.00;96265.50;1016124;29;20020;-52
2021/10/13 00:32:59;;;;;;;10.10;6.22;;;;;;;6.13;100.00;96261.06;1024256;28;20030;-51
2021/10/13 00:33:29;;;;;;;9.85;6.25;;;;;;;6.14;100.00;96270.56;1031532;28;20646;-50
2021/10/13 00:34:02;;;;;;;9.45;6.63;;;;;;;6.12;100.00;96267.16;1031571;28;20050;-51
2021/10/13 00:34:32;;;;;;;8.30;6.05;;;;;;;6.11;100.00;96266.31;1031795;28;20023;-51
2021/10/13 00:35:03;;;;;;;10.65;7.03;;;;;;;6.09;100.00;96272.53;1035529;28;20260;-51
2021/10/13 00:35:34;;;;;;;11.38;6.72;;;;;;;6.13;100.00;96271.47;1031449;28;20452;-51
2021/10/13 00:36:05;;;;;;;9.82;6.80;;;;;;;6.15;100.00;96277.44;1031659;28;20019;-51
2021/10/13 00:36:36;;;;;;;9.02;6.60;;;;;;;6.13;100.00;96272.28;1031324;28;20292;-51
2021/10/13 00:37:06;;;;;;;9.50;7.03;;;;;;;6.12;100.00;96270.63;1027734;28;20076;-50
2021/10/13 00:37:37;;;;;;;9.30;6.22;;;;;;;6.13;100.00;96274.06;1031896;28;20034;-51
2021/10/13 00:38:08;;;;;;;11.13;7.30;;;;;;;6.17;100.00;96276.44;1027695;28;20058;-51
2021/10/13 00:38:39;;;;;;;9.43;6.93;;;;;;;6.12;100.00;96272.38;1027533;28;20113;-51
2021/10/13 00:39:10;;;;;;;9.18;6.53;;;;;;;6.09;100.00;96265.56;1023403;29;20099;-51
2021/10/13 00:39:40;;;;;;;10.13;6.68;;;;;;;6.11;100.00;96270.69;1027504;28;20357;-51
2021/10/13 00:40:11;;;;;;;9.10;6.95;;;;;;;6.03;100.00;96276.25;1027496;28;20792;-52
2021/10/13 00:40:42;;;;;;;10.18;6.78;;;;;;;6.03;100.00;96274.50;1019556;29;20020;-51
2021/10/13 00:41:14;;;;;;;8.48;7.05;;;;;;;6.07;100.00;96269.16;1023464;29;20515;-51
2021/10/13 00:41:45;;;;;;;9.50;6.55;;;;;;;6.08;100.00;96270.84;1023594;29;20023;-53
2021/10/13 00:42:16;;;;;;;9.68;6.85;;;;;;;6.03;100.00;96269.28;1024447;28;20761;-51
2021/10/13 00:42:46;;;;;;;10.98;7.32;;;;;;;6.07;100.00;96272.59;1031360;28;20023;-50
2021/10/13 00:43:17;;;;;;;10.80;7.07;;;;;;;6.08;100.00;96274.28;1031428;28;20026;-51
2021/10/13 00:43:48;;;;;;;10.93;7.07;;;;;;;6.12;100.00;96275.84;1035663;28;20096;-52
2021/10/13 00:44:19;;;;;;;9.77;7.13;;;;;;;6.08;100.00;96273.44;1035587;28;20026;-50
2021/10/13 00:44:49;;;;;;;9.73;7.38;;;;;;;6.08;100.00;96274.28;1031282;28;20469;-52
2021/10/13 00:45:20;;;;;;;10.10;7.45;;;;;;;6.04;100.00;96275.34;1023380;29;20046;-50
2021/10/13 00:45:52;;;;;;;11.52;7.38;;;;;;;6.00;100.00;96273.78;1023688;28;20036;-51
2021/10/13 00:46:22;;;;;;;11.48;7.15;;;;;;;6.00;100.00;96273.78;1027993;28;20497;-51
2021/10/13 00:46:53;;;;;;;11.85;7.25;;;;;;;5.96;100.00;96280.91;1027820;28;20282;-51
2021/10/13 00:47:24;;;;;;;12.07;7.82;;;;;;;5.94;100.00;96277.50;1031065;28;20412;-52
2021/10/13 00:47:54;;;;;;;10.68;7.68;;;;;;;5.96;100.00;96272.25;1035485;28;20261;-51
2021/10/13 00:48:25;;;;;;;11.35;7.13;;;;;;;5.98;100.00;96273.88;1031506;28;20076;-53
2021/10/13 00:48:56;;;;;;;10.57;7.57;;;;;;;5.98;100.00;96273.88;1027520;28;20114;-51
2021/10/13 00:49:27;;;;;;;12.73;8.45;;;;;;;5.94;100.00;96274.91;1023506;28;20572;-51
2021/10/13 00:49:57;;;;;;;10.90;7.95;;;;;;;5.93;100.00;96278.44;1023621;28;20074;-51
2021/10/13 00:50:28;;;;;;;11.15;7.70;;;;;;;5.95;100.00;96276.63;1023709;28;20310;-51
2021/10/13 00:50:59;;;;;;;10.52;7.78;;;;;;;5.97;100.00;96279.16;1027745;28;20031;-52
2021/10/13 00:51:30;;;;;;;10.35;7.70;;;;;;;5.93;100.00;96272.34;1027463;28;20587;-53
2021/10/13 00:52:01;;;;;;;12.52;8.25;;;;;;;5.94;100.00;96276.66;1027646;28;20026;-51
2021/10/13 00:52:31;;;;;;;10.73;8.57;;;;;;;5.92;100.00;96278.50;1027564;28;20262;-52
2021/10/13 00:53:02;;;;;;;11.07;7.75;;;;;;;5.94;100.00;96284.47;1023234;29;20800;-51
2021/10/13 00:53:33;;;;;;;11.57;8.02;;;;;;;5.91;100.00;96280.25;1023660;29;20020;-50
2021/10/13 00:54:04;;;;;;;13.70;8.98;;;;;;;5.91;100.00;96276.78;1027556;28;20397;-51
2021/10/13 00:54:35;;;;;;;13.50;8.38;;;;;;;5.90;100.00;96277.72;1031528;28;20018;-51
2021/10/13 00:55:08;;;;;;;12.43;8.30;;;;;;;5.93;100.00;96282.75;1027595;28;20681;-53
2021/10/13 00:55:38;;;;;;;11.45;8.13;;;;;;;5.92;100.00;96276.72;1028053;28;20031;-51
2021/10/13 00:56:09;;;;;;;10.65;8.15;;;;;;;5.91;100.00;96285.47;1031476;28;20294;-51
2021/10/13 00:56:40;;;;;;;11.70;8.82;;;;;;;5.91;100.00;96285.47;1027920;28;20023;-52
2021/10/13 00:57:11;;;;;;;11.10;8.40;;;;;;;5.89;100.00;96281.22;1027397;28;20113;-51
2021/10/13 00:57:42;;;;;;;12.68;7.85;;;;;;;5.92;100.00;96287.13;1027412;28;20023;-52
2021/10/13 00:58:12;;;;;;;12.05;8.65;;;;;;;5.95;100.00;96278.31;1027640;28;20274;-51
2021/10/13 00:58:43;;;;;;;10.75;8.43;;;;;;;5.95;100.00;96284.44;1023527;28;20065;-51
2021/10/13 00:59:14;;;;;;;10.75;8.48;;;;;;;5.93;100.00;96283.63;1019498;29;20046;-53
2021/10/13 00:59:44;;;;;;;11.13;8.43;;;;;;;5.96;100.00;96286.09;1019637;28;20030;-51
2021/10/13 01:00:16;;;;;;;12.02;8.80;;;;;;;6.00;100.00;96282.44;1019441;29;20027;-49
2021/10/13 01:00:47;;;;;;;13.32;9.35;;;;;;;6.03;100.00;96287.50;1019813;29;20486;-51
2021/10/13 01:01:24;;;;;;;12.32;8.63;;;;;;;5.99;100.00;96290.34;1023879;28;20891;-51
2021/10/13 01:01:58;;;;;;;12.27;8.30;;;;;;;6.02;100.00;96291.03;1032508;28;20355;-50
2021/10/13 01:02:31;;;;;;;12.48;8.27;;;;;;;6.05;100.00;96291.81;1037031;28;20272;-51
2021/10/13 01:03:14;;;;;;;11.63;8.65;;;;;;;6.06;100.00;96290.88;1027234;28;20326;-52
2021/10/13 01:03:53;;;;;;;12.57;8.30;;;;;;;6.14;100.00;96294.81;1023547;28;20275;-51
2021/10/13 01:04:36;;;;;;;11.90;7.82;;;;;;;6.08;100.00;96297.72;1023390;29;20637;-51
2021/10/13 01:05:47;;;;;;;12.75;8.75;;;;;;;6.03;100.00;96295.31;1035554;28;20264;-51
2021/10/13 01:06:36;;;;;;;;;;;;;;;6.03;100.00;96297.06;1035917;28;20268;-53
2021/10/13 01:07:25;;;;;;;13.15;8.07;;;;;;;5.99;100.00;96296.38;1032030;28;19917;-51
2021/10/13 01:07:58;;;;;;;13.80;9.00;;;;;;;5.97;100.00;96294.75;1032156;28;20284;-51
2021/10/13 01:08:52;;;;;;;13.50;8.60;;;;;;;5.95;100.00;96297.44;1032197;28;20747;-51
2021/10/13 01:09:25;;;;;;;15.70;8.63;;;;;;;5.95;100.00;96300.03;1036270;28;20367;-51
2021/10/13 01:10:15;;;;;;;14.60;9.43;;;;;;;5.93;100.00;96299.22;1040489;28;20252;-51
2021/10/13 01:11:25;;;;;;;13.77;8.98;;;;;;;5.95;100.00;96300.03;1040326;28;20370;-51
2021/10/13 01:12:14;;;;;;;14.43;8.35;;;;;;;5.96;100.00;96301.69;1036153;28;20279;-50
2021/10/13 01:13:05;;;;;;;12.40;8.43;;;;;;;5.96;100.00;96304.31;1028273;28;20031;-54
2021/10/13 01:13:37;;;;;;;;;;;;;;;5.87;100.00;96306.47;1029859;28;20250;-51
2021/10/13 01:14:19;;;;;;;12.75;9.25;;;;;;;5.88;100.00;96297.75;1032371;28;20286;-51
2021/10/13 01:15:13;;;;;;;12.00;8.60;;;;;;;5.93;100.00;96309.63;1036176;28;20388;-51
2021/10/13 01:15:53;;;;;;;14.15;9.15;;;;;;;5.93;100.00;96313.97;1032155;28;20278;-51
2021/10/13 01:16:43;;;;;;;14.20;9.05;;;;;;;5.96;100.00;96317.31;1032108;28;20368;-51
2021/10/13 01:17:19;;;;;;;;;;;;;;;5.98;100.00;96315.47;1028751;28;20027;-51
2021/10/13 01:18:14;;;;;;;13.25;8.50;;;;;;;6.04;100.00;96316.94;1032150;28;19909;-51
2021/10/13 01:18:50;;;;;;;12.75;8.73;;;;;;;6.01;100.00;96310.16;1036229;28;20949;-51
2021/10/13 01:19:36;;;;;;;13.57;8.88;;;;;;;5.99;100.00;96317.19;1040315;28;20724;-51
2021/10/13 01:20:15;;;;;;;15.40;10.07;;;;;;;5.96;100.00;96319.06;1040435;28;20275;-51
2021/10/13 01:21:02;;;;;;;13.10;9.13;;;;;;;5.92;100.00;96318.34;1032201;28;20265;-51
2021/10/13 01:22:13;;;;;;;13.00;9.27;;;;;;;5.95;100.00;96319.94;1032366;28;20268;-52
2021/10/13 01:22:53;;;;;;;;;;;;;;;5.95;100.00;96315.63;1032599;28;20269;-51
2021/10/13 01:23:50;;;;;;;14.20;9.38;;;;;;;5.95;100.00;96318.25;1026801;28;19914;-51
2021/10/13 01:24:27;;;;;;;14.50;9.82;;;;;;;5.93;100.00;96319.16;1032238;28;20261;-52
2021/10/13 01:25:04;;;;;;;13.52;8.85;;;;;;;5.89;100.00;96315.88;1024979;28;20262;-51
2021/10/13 01:25:45;;;;;;;15.70;9.80;;;;;;;5.91;100.00;96314.06;1032289;28;20276;-50
2021/10/13 01:26:37;;;;;;;13.30;9.38;;;;;;;5.91;100.00;96314.06;1029088;28;20302;-50
2021/10/13 01:27:19;;;;;;;14.18;9.60;;;;;;;5.82;100.00;96306.69;1032136;28;20287;-51
2021/10/13 01:27:55;;;;;;;16.65;10.32;;;;;;;5.87;100.00;96317.69;1032223;28;20316;-51
2021/10/13 01:28:29;;;;;;;17.17;10.25;;;;;;;5.88;100.00;96314.19;1028044;28;20320;-51
2021/10/13 01:29:02;;;;;;;16.75;10.43;;;;;;;5.87;100.00;96314.25;1026915;28;20309;-51
2021/10/13 01:29:33;;;;;;;18.58;11.07;;;;;;;5.87;100.00;96320.28;1028062;28;20416;-53
2021/10/13 01:30:04;;;;;;;16.88;10.80;;;;;;;5.83;100.00;96323.97;1036167;28;20275;-51
2021/10/13 01:30:40;;;;;;;14.90;10.32;;;;;;;5.88;100.00;96322.00;1032128;28;20445;-53
2021/10/13 01:31:23;;;;;;;17.20;10.55;;;;;;;5.93;100.00;96320.03;1023962;28;20361;-50
2021/10/13 01:32:03;;;;;;;18.30;11.18;;;;;;;5.92;100.00;96318.34;1028065;28;20258;-51
2021/10/13 01:32:36;;;;;;;14.77;10.68;;;;;;;5.92;100.00;96315.72;1024088;29;20270;-51
2021/10/13 01:33:17;;;;;;;14.77;10.15;;;;;;;5.91;100.00;96321.88;1027785;28;20715;-50
2021/10/13 01:33:59;;;;;;;16.85;10.05;;;;;;;5.91;100.00;96321.88;1023237;29;20781;-54
2021/10/13 01:34:36;;;;;;;13.43;9.68;;;;;;;5.91;100.00;96316.66;1027557;28;20269;-50
2021/10/13 01:35:07;;;;;;;15.10;9.68;;;;;;;5.92;100.00;96322.69;1027852;28;20324;-50
2021/10/13 01:35:40;;;;;;;17.23;10.32;;;;;;;5.89;100.00;96322.84;1027912;28;20286;-52
2021/10/13 01:36:12;;;;;;;14.52;9.88;;;;;;;5.92;100.00;96322.69;1032049;28;20273;-51
2021/10/13 01:36:45;;;;;;;15.73;10.23;;;;;;;5.91;100.00;96321.00;1024195;28;20291;-50
2021/10/13 01:37:18;;;;;;;15.00;10.40;;;;;;;5.93;100.00;96325.25;1028147;28;20369;-52
2021/10/13 01:37:51;;;;;;;17.35;10.48;;;;;;;5.92;100.00;96320.09;1025000;28;20267;-51
2021/10/13 01:38:24;;;;;;;13.32;10.07;;;;;;;5.96;100.00;96327.72;1029319;28;20282;-54
2021/10/13 01:38:54;;;;;;;16.30;10.63;;;;;;;5.99;100.00;96330.19;1028112;28;20285;-50
2021/10/13 01:39:25;;;;;;;13.48;9.77;;;;;;;5.92;100.00;96322.69;1028903;28;20289;-50
2021/10/13 01:39:57;;;;;;;15.85;10.20;;;;;;;5.93;100.00;96317.44;1028027;28;20109;-51
2021/10/13 01:40:29;;;;;;;15.27;10.10;;;;;;;5.93;100.00;96324.38;1032100;28;20299;-51
2021/10/13 01:41:00;;;;;;;16.40;10.50;;;;;;;5.91;100.00;96329.66;1024037;28;20271;-51
2021/10/13 01:41:32;;;;;;;14.70;10.18;;;;;;;5.88;100.00;96323.75;1027914;28;20277;-50
2021/10/13 01:42:04;;;;;;;15.57;9.82;;;;;;;5.89;100.00;96330.63;1023982;28;20275;-51
2021/10/13 01:42:35;;;;;;;16.80;10.20;;;;;;;5.89;100.00;96325.44;1032099;28;20257;-50
2021/10/13 01:43:05;;;;;;;14.38;9.45;;;;;;;5.98;100.00;96325.88;1027855;28;20262;-50
2021/10/13 01:43:37;;;;;;;17.55;10.57;;;;;;;5.96;100.00;96325.09;1023933;29;20302;-52
2021/10/13 01:44:10;;;;;;;16.50;10.50;;;;;;;5.93;100.00;96330.44;1020267;29;20515;-52
2021/10/13 01:44:41;;;;;;;14.10;9.65;;;;;;;5.94;100.00;96331.28;1023968;28;20259;-50
2021/10/13 01:45:12;;;;;;;15.90;10.20;;;;;;;5.95;100.00;96323.44;1024160;28;20271;-54
2021/10/13 01:45:45;;;;;;;15.40;10.82;;;;;;;6.01;100.00;96327.50;1032022;28;20254;-51
2021/10/13 01:46:15;;;;;;;16.85;10.40;;;;;;;5.99;100.00;96331.94;1024150;28;20047;-50
2021/10/13 01:46:46;;;;;;;18.92;10.50;;;;;;;6.01;100.00;96327.50;1024701;28;20302;-51
2021/10/13 01:47:18;;;;;;;16.52;10.80;;;;;;;6.01;100.00;96328.34;1032062;28;20024;-51
2021/10/13 01:47:49;;;;;;;15.55;10.77;;;;;;;6.08;100.00;96328.94;1040015;28;20028;-51
2021/10/13 01:48:20;;;;;;;15.07;10.35;;;;;;;6.06;100.00;96329.88;1036145;28;20273;-50
2021/10/13 01:48:51;;;;;;;15.88;9.80;;;;;;;6.03;100.00;96331.72;1027787;28;20027;-51
2021/10/13 01:49:21;;;;;;;14.70;10.07;;;;;;;5.97;100.00;96334.63;1028033;28;20842;-51
2021/10/13 01:49:53;;;;;;;17.40;10.10;;;;;;;5.97;100.00;96337.22;1023962;29;20054;-53
2021/10/13 01:50:24;;;;;;;14.55;10.25;;;;;;;5.98;100.00;96335.44;1028073;28;20114;-54
2021/10/13 01:50:55;;;;;;;15.60;10.07;;;;;;;5.95;100.00;96328.63;1031963;28;20269;-51
2021/10/13 01:51:27;;;;;;;18.50;10.40;;;;;;;5.89;100.00;96328.88;1032075;28;20125;-51
2021/10/13 01:51:58;;;;;;;15.00;9.85;;;;;;;5.86;100.00;96339.44;1039856;28;20100;-50
2021/10/13 01:52:28;;;;;;;14.95;9.98;;;;;;;5.88;100.00;96342.81;1036032;28;20354;-53
2021/10/13 01:52:59;;;;;;;17.90;10.88;;;;;;;5.91;100.00;96340.06;1031798;28;20032;-52
2021/10/13 01:53:30;;;;;;;16.65;10.63;;;;;;;5.93;100.00;96335.66;1032192;28;20040;-51
2021/10/13 01:54:01;;;;;;;15.70;10.35;;;;;;;5.93;100.00;96334.78;1031944;28;20269;-53
2021/10/13 01:54:31;;;;;;;15.45;9.98;;;;;;;5.94;100.00;96341.69;1028271;28;20130;-49
2021/10/13 01:55:03;;;;;;;18.50;11.57;;;;;;;5.95;100.00;96333.84;1032170;28;20078;-50
2021/10/13 01:55:34;;;;;;;14.20;9.77;;;;;;;5.92;100.00;96331.34;1023947;29;20026;-51
2021/10/13 01:56:04;;;;;;;15.70;10.05;;;;;;;5.95;100.00;96338.16;1020066;29;20268;-53
2021/10/13 01:56:35;;;;;;;16.30;9.90;;;;;;;5.95;100.00;96343.34;1031861;28;20026;-51
2021/10/13 01:57:06;;;;;;;17.95;10.48;;;;;;;5.94;100.00;96341.69;1032207;28;20105;-50
2021/10/13 01:57:37;;;;;;;13.73;9.93;;;;;;;5.96;100.00;96340.72;1028339;28;20030;-51
2021/10/13 01:58:08;;;;;;;18.20;10.65;;;;;;;5.95;100.00;96340.75;1028113;28;20258;-51
2021/10/13 01:58:38;;;;;;;15.95;10.25;;;;;;;5.95;100.00;96344.25;1024050;29;20094;-53
2021/10/13 01:59:14;;;;;;;14.85;9.23;;;;;;;5.96;100.00;96340.72;1024050;29;20259;-51
2021/10/13 01:59:44;;;;;;;14.63;10.32;;;;;;;5.96;100.00;96340.72;1027919;28;20467;-53
2021/10/13 02:00:15;;;;;;;18.45;10.90;;;;;;;5.98;100.00;96338.88;1023922;28;20322;-52
2021/10/13 02:00:47;;;;;;;13.75;8.75;;;;;;;6.08;100.00;96348.88;1031938;28;20137;-51
2021/10/13 02:01:18;;;;;;;14.68;9.25;;;;;;;6.09;100.00;96350.56;1032040;28;20032;-51
2021/10/13 02:01:50;;;;;;;14.43;9.07;;;;;;;6.11;100.00;96351.34;1032006;28;20269;-51
2021/10/13 02:02:21;;;;;;;13.05;9.02;;;;;;;6.10;100.00;96341.84;1031848;28;20571;-51
2021/10/13 02:02:52;;;;;;;17.02;10.95;;;;;;;6.12;100.00;96346.06;1023787;29;20265;-49
2021/10/13 02:03:25;;;;;;;16.80;10.18;;;;;;;6.06;100.00;96340.28;1020051;29;20135;-53
2021/10/13 02:03:57;;;;;;;14.55;9.90;;;;;;;6.10;100.00;96341.84;1024025;29;20321;-52
2021/10/13 02:04:28;;;;;;;15.43;9.90;;;;;;;6.06;100.00;96342.91;1028539;28;20266;-52
2021/10/13 02:04:58;;;;;;;15.52;10.15;;;;;;;6.06;100.00;96348.09;1032746;28;20261;-51
2021/10/13 02:05:29;;;;;;;13.32;9.50;;;;;;;6.08;100.00;96349.75;1035666;28;20068;-52
2021/10/13 02:06:01;;;;;;;14.88;9.80;;;;;;;6.00;100.00;96349.22;1020086;29;20096;-51
2021/10/13 02:06:32;;;;;;;13.20;9.77;;;;;;;5.96;100.00;96348.50;1019908;29;20106;-49
2021/10/13 02:07:03;;;;;;;14.52;9.90;;;;;;;5.98;100.00;96346.69;1020039;29;20627;-51
2021/10/13 02:07:34;;;;;;;12.48;9.48;;;;;;;5.93;100.00;96347.78;1027940;28;20026;-52
2021/10/13 02:08:05;;;;;;;15.98;10.10;;;;;;;5.96;100.00;96348.50;1023977;29;20019;-50
2021/10/13 02:08:36;;;;;;;13.77;9.95;;;;;;;5.95;100.00;96345.94;1023988;29;20259;-52
2021/10/13 02:09:07;;;;;;;16.05;10.90;;;;;;;5.98;100.00;96345.84;1024052;29;20019;-50
2021/10/13 02:09:38;;;;;;;17.17;10.05;;;;;;;5.93;100.00;96345.19;1024260;28;20622;-52
2021/10/13 02:10:10;;;;;;;15.70;10.73;;;;;;;5.90;100.00;96343.56;1024009;29;20033;-51
2021/10/13 02:10:40;;;;;;;16.75;11.13;;;;;;;5.87;100.00;96350.66;1024041;29;20027;-52
2021/10/13 02:11:11;;;;;;;15.07;10.65;;;;;;;5.84;100.00;96352.50;1028020;28;20782;-53
2021/10/13 02:11:42;;;;;;;16.63;10.93;;;;;;;5.87;100.00;96351.50;1023969;28;20114;-51
2021/10/13 02:12:12;;;;;;;15.20;10.10;;;;;;;5.84;100.00;96343.84;1023858;28;20797;-52
2021/10/13 02:12:44;;;;;;;13.13;9.93;;;;;;;5.86;100.00;96344.63;1023975;29;20102;-50
2021/10/13 02:13:17;;;;;;;14.48;10.80;;;;;;;5.87;100.00;96353.25;1020122;29;20034;-54
2021/10/13 02:13:48;;;;;;;16.13;10.60;;;;;;;5.85;100.00;96348.97;1023839;29;20271;-51
2021/10/13 02:14:19;;;;;;;15.60;10.77;;;;;;;5.87;100.00;96348.06;1020088;29;20307;-51
2021/10/13 02:14:50;;;;;;;14.20;10.73;;;;;;;5.87;100.00;96343.69;1023913;29;20085;-54
2021/10/13 02:15:20;;;;;;;12.98;9.52;;;;;;;5.87;100.00;96340.25;1031792;28;20081;-52
2021/10/13 02:15:51;;;;;;;13.90;10.68;;;;;;;5.84;100.00;96338.66;1020171;29;20099;-51
2021/10/13 02:16:22;;;;;;;19.33;10.30;;;;;;;5.79;100.00;96348.41;1020041;29;20015;-51
2021/10/13 02:16:54;;;;;;;14.88;10.40;;;;;;;5.83;100.00;96343.00;1027859;28;20262;-51
2021/10/13 02:17:25;;;;;;;15.10;10.88;;;;;;;5.88;100.00;96349.75;1028400;28;20046;-51
2021/10/13 02:17:59;;;;;;;13.73;10.43;;;;;;;5.88;100.00;96352.38;1027929;28;20345;-51
2021/10/13 02:18:30;;;;;;;14.40;10.70;;;;;;;5.87;100.00;96350.66;1020178;28;20012;-54
2021/10/13 02:19:03;;;;;;;15.48;10.85;;;;;;;5.85;100.00;96348.13;1027287;28;20261;-51
2021/10/13 02:19:33;;;;;;;14.00;10.27;;;;;;;5.82;100.00;96351.72;1028002;28;20262;-52
2021/10/13 02:20:05;;;;;;;16.65;10.63;;;;;;;5.83;100.00;96353.41;1027986;28;20294;-51
2021/10/13 02:20:35;;;;;;;15.18;11.25;;;;;;;5.82;100.00;96348.28;1031927;28;20443;-51
2021/10/13 02:21:06;;;;;;;14.77;10.68;;;;;;;5.81;100.00;96351.78;1019978;28;20270;-51
2021/10/13 02:21:37;;;;;;;16.70;11.68;;;;;;;5.82;100.00;96354.31;1024002;29;20106;-52
2021/10/13 02:22:08;;;;;;;16.50;11.32;;;;;;;5.81;100.00;96354.38;1023776;29;20026;-52
2021/10/13 02:22:40;;;;;;;17.52;11.43;;;;;;;5.78;100.00;96357.13;1023946;28;20302;-50
2021/10/13 02:23:11;;;;;;;16.92;12.00;;;;;;;5.81;100.00;96360.41;1015803;29;20395;-51
2021/10/13 02:23:42;;;;;;;16.13;11.55;;;;;;;5.85;100.00;96358.53;1020464;29;20804;-51
2021/10/13 02:24:15;;;;;;;16.33;11.35;;;;;;;5.85;100.00;96353.34;1020530;29;20271;-51
2021/10/13 02:24:47;;;;;;;17.20;11.88;;;;;;;5.82;100.00;96358.69;1027935;28;20077;-54
2021/10/13 02:25:18;;;;;;;16.02;11.77;;;;;;;5.78;100.00;96363.19;1027694;28;20791;-50
2021/10/13 02:25:50;;;;;;;16.13;10.85;;;;;;;5.84;100.00;96362.06;1032011;28;20337;-51
2021/10/13 02:26:23;;;;;;;15.38;11.57;;;;;;;5.86;100.00;96368.03;1027922;28;20576;-51
2021/10/13 02:27:03;;;;;;;14.75;11.45;;;;;;;5.82;100.00;96363.88;1032105;28;20253;-50
2021/10/13 02:27:46;;;;;;;16.67;11.40;;;;;;;5.86;100.00;96360.22;1030167;28;20694;-51
2021/10/13 02:28:21;;;;;;;18.52;11.27;;;;;;;5.84;100.00;96362.06;1031265;28;20058;-52
2021/10/13 02:28:56;;;;;;;17.23;11.02;;;;;;;5.85;100.00;96361.97;1032406;28;20258;-51
2021/10/13 02:29:26;;;;;;;16.40;10.75;;;;;;;5.85;100.00;96361.97;1027713;28;20262;-52
2021/10/13 02:29:57;;;;;;;16.45;11.90;;;;;;;5.84;100.00;96364.66;1030667;28;20291;-51
2021/10/13 02:30:28;;;;;;;15.48;10.82;;;;;;;5.79;100.00;96367.44;1031196;28;20014;-51
2021/10/13 02:30:59;;;;;;;20.20;11.57;;;;;;;5.80;100.00;96366.56;1019883;29;20070;-51
2021/10/13 02:31:31;;;;;;;15.13;11.25;;;;;;;5.78;100.00;96370.97;1031829;28;20292;-51
2021/10/13 02:32:02;;;;;;;14.82;11.32;;;;;;;5.82;100.00;96369.94;1031709;28;20014;-54
2021/10/13 02:32:33;;;;;;;15.68;11.27;;;;;;;5.84;100.00;96365.50;1024265;28;20266;-51
2021/10/13 02:33:04;;;;;;;14.75;11.40;;;;;;;5.88;100.00;96368.81;1020218;29;20132;-50
2021/10/13 02:33:36;;;;;;;16.45;11.40;;;;;;;5.91;100.00;96373.00;1024000;28;20513;-52
2021/10/13 02:34:07;;;;;;;16.25;11.50;;;;;;;5.90;100.00;96371.34;1032357;28;20794;-51
2021/10/13 02:34:39;;;;;;;15.25;11.05;;;;;;;5.92;100.00;96374.72;1036408;28;20344;-50
2021/10/13 02:35:09;;;;;;;14.50;10.73;;;;;;;5.95;100.00;96375.47;1036038;28;20052;-51